createdAt,value
2019-03-10T00:03:06.807Z,66.24
2019-03-10T00:05:35.597Z,68.90
2019-03-10T00:08:03.787Z,67.79
2019-03-10T00:10:32.021Z,67.95
2019-03-10T00:13:00.203Z,68.63
2019-03-10T00:15:28.450Z,68.36
2019-03-10T00:17:56.692Z,67.66
2019-03-10T00:20:25.145Z,67.20
2019-03-10T00:22:53.348Z,67.73
2019-03-10T00:25:21.569Z,66.86
2019-03-10T00:27:49.796Z,67.03
2019-03-10T00:30:18.112Z,67.39
2019-03-10T00:32:46.270Z,67.42
2019-03-10T00:35:15.030Z,68.33
2019-03-10T00:37:43.335Z,67.59
2019-03-10T00:40:52.440Z,67.49
2019-03-10T00:44:14.100Z,67.42
2019-03-10T00:47:24.086Z,68.23
2019-03-10T00:50:22.493Z,67.42
2019-03-10T00:52:59.121Z,67.44
2019-03-10T00:55:27.419Z,67.60
2019-03-10T00:57:55.622Z,67.52
2019-03-10T01:00:23.955Z,67.36
2019-03-10T01:02:52.184Z,67.08
2019-03-10T01:05:20.315Z,67.42
2019-03-10T01:07:48.825Z,67.22
2019-03-10T01:10:17.043Z,67.30
2019-03-10T01:12:45.177Z,65.84
2019-03-10T01:15:13.537Z,65.30
2019-03-10T01:17:42.210Z,66.84
2019-03-10T01:20:10.962Z,66.16
2019-03-10T01:22:39.466Z,65.61
2019-03-10T01:25:08.195Z,65.49
2019-03-10T01:27:36.418Z,65.12
2019-03-10T01:30:05.586Z,64.73
2019-03-10T01:33:10.442Z,65.54
2019-03-10T01:35:42.593Z,64.79
2019-03-10T01:38:10.824Z,64.14
2019-03-10T01:40:39.054Z,64.76
2019-03-10T01:43:07.223Z,63.96
2019-03-10T01:45:35.392Z,63.79
2019-03-10T01:48:03.691Z,63.69
2019-03-10T01:50:32.062Z,63.97
2019-03-10T01:53:00.281Z,63.52
2019-03-10T01:55:28.624Z,63.05
2019-03-10T01:57:56.805Z,63.48
2019-03-10T02:00:25.172Z,63.99
2019-03-10T02:02:53.327Z,63.03
2019-03-10T02:05:21.666Z,62.14
2019-03-10T02:07:49.997Z,64.16
2019-03-10T02:10:18.763Z,63.59
2019-03-10T02:12:47.229Z,63.87
2019-03-10T02:15:15.975Z,64.08
2019-03-10T02:17:44.200Z,64.42
2019-03-10T02:20:15.057Z,64.52
2019-03-10T02:22:43.350Z,64.97
2019-03-10T02:25:11.643Z,64.83
2019-03-10T02:27:39.794Z,64.89
2019-03-10T02:30:10.006Z,64.94
2019-03-10T02:32:38.197Z,63.72
2019-03-10T02:35:06.800Z,64.65
2019-03-10T02:37:34.999Z,63.97
2019-03-10T02:40:03.187Z,63.97
2019-03-10T02:42:31.668Z,64.22
2019-03-10T02:44:59.827Z,65.56
2019-03-10T02:47:27.980Z,64.92
2019-03-10T02:49:56.398Z,65.90
2019-03-10T02:52:24.604Z,65.80
2019-03-10T02:54:52.792Z,66.41
2019-03-10T02:57:20.967Z,66.32
2019-03-10T02:59:49.323Z,66.43
2019-03-10T03:02:17.718Z,66.63
2019-03-10T03:04:45.893Z,65.53
2019-03-10T03:07:14.099Z,64.81
2019-03-10T03:09:42.271Z,65.94
2019-03-10T03:12:10.765Z,64.28
2019-03-10T03:14:39.342Z,66.42
2019-03-10T03:17:07.517Z,66.11
2019-03-10T03:19:35.669Z,65.13
2019-03-10T03:22:03.878Z,66.22
2019-03-10T03:24:32.123Z,66.95
2019-03-10T03:27:02.512Z,64.68
2019-03-10T03:29:30.192Z,66.80
2019-03-10T03:31:58.691Z,66.76
2019-03-10T03:34:26.984Z,66.45
2019-03-10T03:36:55.111Z,65.62
2019-03-10T03:39:30.295Z,66.80
2019-03-10T03:41:58.482Z,67.23
2019-03-10T03:44:26.703Z,68.15
2019-03-10T03:46:55.156Z,68.09
2019-03-10T03:49:23.345Z,66.97
2019-03-10T03:51:51.476Z,66.56
2019-03-10T03:54:19.609Z,67.60
2019-03-10T03:56:47.876Z,67.64
2019-03-10T03:59:15.967Z,66.31
2019-03-10T04:02:03.073Z,66.85
2019-03-10T04:04:31.241Z,67.12
2019-03-10T04:06:59.682Z,66.98
2019-03-10T04:09:27.819Z,66.56
2019-03-10T04:11:55.957Z,64.52
2019-03-10T04:14:24.142Z,67.33
2019-03-10T04:16:52.293Z,64.36
2019-03-10T04:19:20.512Z,63.85
2019-03-10T04:21:48.859Z,66.90
2019-03-10T04:24:16.980Z,66.45
2019-03-10T04:26:45.165Z,64.15
2019-03-10T04:29:13.430Z,64.88
2019-03-10T04:31:41.714Z,67.28
2019-03-10T04:34:09.981Z,66.83
2019-03-10T04:36:38.159Z,64.19
2019-03-10T04:39:07.665Z,64.48
2019-03-10T04:41:35.843Z,64.46
2019-03-10T04:44:04.237Z,66.73
2019-03-10T04:46:32.439Z,65.44
2019-03-10T04:49:00.655Z,64.76
2019-03-10T04:51:28.944Z,65.36
2019-03-10T04:53:57.585Z,63.36
2019-03-10T04:56:44.733Z,62.75
2019-03-10T04:59:12.895Z,62.11
2019-03-10T05:01:40.995Z,62.77
2019-03-10T05:04:09.211Z,63.00
2019-03-10T05:06:37.325Z,63.08
2019-03-10T05:09:10.276Z,63.37
2019-03-10T05:11:38.490Z,63.70
2019-03-10T05:14:06.655Z,65.05
2019-03-10T05:16:34.877Z,66.44
2019-03-10T05:19:03.070Z,66.06
2019-03-10T05:21:31.274Z,64.54
2019-03-10T05:24:03.140Z,67.53
2019-03-10T05:26:31.600Z,67.60
2019-03-10T05:28:59.730Z,68.68
2019-03-10T05:31:27.879Z,70.19
2019-03-10T05:33:56.158Z,70.31
2019-03-10T05:36:24.316Z,67.81
2019-03-10T05:38:52.496Z,67.51
2019-03-10T05:41:20.694Z,70.71
2019-03-10T05:43:48.885Z,72.34
2019-03-10T05:46:17.066Z,71.00
2019-03-10T05:48:45.276Z,71.41
2019-03-10T05:51:13.479Z,73.41
2019-03-10T05:53:41.669Z,68.96
2019-03-10T05:56:10.238Z,73.13
2019-03-10T05:58:38.615Z,73.78
2019-03-10T06:01:06.843Z,69.86
2019-03-10T06:03:35.073Z,67.23
2019-03-10T06:06:03.420Z,68.76
2019-03-10T06:08:31.802Z,72.58
2019-03-10T06:11:00.166Z,75.22
2019-03-10T06:13:28.429Z,68.42
2019-03-10T06:15:56.576Z,67.18
2019-03-10T06:18:24.797Z,72.97
2019-03-10T06:20:53.283Z,73.03
2019-03-10T06:23:21.706Z,65.92
2019-03-10T06:25:49.949Z,64.73
2019-03-10T06:28:18.185Z,64.35
2019-03-10T06:30:46.418Z,64.71
2019-03-10T06:33:14.580Z,63.89
2019-03-10T06:35:42.784Z,64.83
2019-03-10T06:38:10.924Z,64.51
2019-03-10T06:40:39.405Z,70.99
2019-03-10T06:43:07.592Z,64.98
2019-03-10T06:45:35.783Z,64.83
2019-03-10T06:48:04.068Z,69.17
2019-03-10T06:50:32.380Z,72.70
2019-03-10T06:53:00.596Z,67.45
2019-03-10T06:55:28.814Z,71.48
2019-03-10T06:57:57.006Z,67.03
2019-03-10T07:00:25.217Z,73.58
2019-03-10T07:02:53.573Z,73.20
2019-03-10T07:05:21.840Z,70.38
2019-03-10T07:07:50.190Z,75.91
2019-03-10T07:10:18.399Z,66.38
2019-03-10T07:12:46.755Z,71.14
2019-03-10T07:15:15.705Z,76.07
2019-03-10T07:17:43.927Z,71.72
2019-03-10T07:20:14.290Z,72.25
2019-03-10T07:22:42.529Z,73.09
2019-03-10T07:25:10.920Z,73.59
2019-03-10T07:27:51.279Z,66.32
2019-03-10T07:30:36.765Z,66.68
2019-03-10T07:33:27.053Z,64.46
2019-03-10T07:36:13.127Z,77.21
2019-03-10T07:38:56.449Z,66.57
2019-03-10T07:41:43.411Z,70.92
2019-03-10T07:44:20.288Z,70.30
2019-03-10T07:46:59.090Z,69.96
2019-03-10T07:50:01.486Z,65.26
2019-03-10T07:52:41.816Z,65.15
2019-03-10T07:55:38.008Z,70.97
2019-03-10T07:58:25.296Z,66.72
2019-03-10T08:01:10.582Z,69.64
2019-03-10T08:03:49.750Z,68.03
2019-03-10T08:06:25.234Z,66.77
2019-03-10T08:09:06.910Z,67.72
2019-03-10T08:11:41.568Z,69.89
2019-03-10T08:14:31.540Z,70.41
2019-03-10T08:17:24.796Z,70.52
2019-03-10T08:20:23.919Z,74.26
2019-03-10T08:23:05.515Z,71.55
2019-03-10T08:26:01.745Z,71.40
2019-03-10T08:28:40.189Z,68.40
2019-03-10T08:31:33.252Z,73.17
2019-03-10T08:34:38.928Z,68.96
2019-03-10T08:37:13.107Z,65.70
2019-03-10T08:40:00.509Z,66.44
2019-03-10T08:42:44.277Z,71.77
2019-03-10T08:45:49.662Z,71.99
2019-03-10T08:48:36.905Z,67.19
2019-03-10T08:51:24.133Z,70.57
2019-03-10T08:54:26.450Z,71.03
2019-03-10T08:57:13.404Z,66.63
2019-03-10T09:00:00.581Z,71.13
2019-03-10T09:02:45.746Z,68.31
2019-03-10T09:05:32.955Z,65.33
2019-03-10T09:08:09.197Z,65.99
2019-03-10T09:10:56.491Z,69.15
2019-03-10T09:13:50.104Z,67.20
2019-03-10T09:16:36.613Z,67.27
2019-03-10T09:19:20.758Z,67.28
2019-03-10T09:22:00.427Z,66.21
2019-03-10T09:24:50.812Z,73.09
2019-03-10T09:27:38.090Z,72.46
2019-03-10T09:30:24.823Z,67.51
2019-03-10T09:33:12.297Z,67.50
2019-03-10T09:35:55.330Z,65.88
2019-03-10T09:38:41.464Z,66.17
2019-03-10T09:41:41.216Z,68.39
2019-03-10T09:44:28.669Z,65.71
2019-03-10T09:47:12.512Z,66.12
2019-03-10T09:50:01.565Z,67.38
2019-03-10T09:53:02.078Z,66.71
2019-03-10T09:55:47.945Z,67.07
2019-03-10T09:58:24.207Z,72.12
2019-03-10T10:01:00.973Z,69.92
2019-03-10T10:03:40.478Z,73.61
2019-03-10T10:06:27.665Z,68.08
2019-03-10T10:09:15.019Z,73.06
2019-03-10T10:11:49.620Z,68.48
2019-03-10T10:14:42.976Z,71.44
2019-03-10T10:17:30.341Z,70.79
2019-03-10T10:20:33.028Z,67.70
2019-03-10T10:23:20.354Z,67.83
2019-03-10T10:26:11.248Z,69.83
2019-03-10T10:28:55.435Z,70.82
2019-03-10T10:31:46.438Z,71.41
2019-03-10T10:34:43.739Z,71.27
2019-03-10T10:37:31.064Z,68.51
2019-03-10T10:40:18.394Z,68.63
2019-03-10T10:43:06.090Z,70.74
2019-03-10T10:45:53.550Z,69.98
2019-03-10T10:48:50.486Z,71.72
2019-03-10T10:51:36.491Z,68.37
2019-03-10T10:54:14.773Z,68.82
2019-03-10T10:57:02.184Z,70.64
2019-03-10T10:59:42.805Z,71.28
2019-03-10T11:02:19.762Z,70.56
2019-03-10T11:04:56.545Z,68.91
2019-03-10T11:07:47.119Z,69.69
2019-03-10T11:10:34.454Z,74.00
2019-03-10T11:13:21.833Z,70.03
2019-03-10T11:16:21.309Z,69.15
2019-03-10T11:19:08.485Z,69.68
2019-03-10T11:21:58.612Z,66.89
2019-03-10T11:24:32.605Z,66.50
2019-03-10T11:27:20.351Z,66.51
2019-03-10T11:30:06.114Z,66.74
2019-03-10T11:32:45.735Z,66.47
2019-03-10T11:35:31.668Z,70.71
2019-03-10T11:38:09.381Z,70.45
2019-03-10T11:40:44.984Z,69.91
2019-03-10T11:43:19.609Z,72.30
2019-03-10T11:46:21.998Z,69.71
2019-03-10T11:49:09.602Z,70.01
2019-03-10T11:51:56.954Z,66.80
2019-03-10T11:54:43.082Z,66.76
2019-03-10T11:57:30.224Z,68.18
2019-03-10T12:00:06.573Z,66.77
2019-03-10T12:02:51.784Z,66.14
2019-03-10T12:05:39.188Z,69.73
2019-03-10T12:08:29.579Z,66.44
2019-03-10T12:10:58.236Z,65.59
2019-03-10T12:13:26.630Z,65.13
2019-03-10T12:15:55.465Z,65.58
2019-03-10T12:18:25.293Z,67.87
2019-03-10T12:20:53.929Z,65.49
2019-03-10T12:23:22.317Z,66.00
2019-03-10T12:25:50.913Z,66.04
2019-03-10T12:28:19.778Z,71.17
2019-03-10T12:30:48.823Z,67.06
2019-03-10T12:33:17.652Z,66.27
2019-03-10T12:35:46.313Z,65.81
2019-03-10T12:38:15.823Z,65.48
2019-03-10T12:40:44.343Z,64.93
2019-03-10T12:43:31.828Z,65.89
2019-03-10T12:46:00.643Z,65.14
2019-03-10T12:48:29.140Z,64.89
2019-03-10T12:50:57.949Z,66.11
2019-03-10T12:53:26.471Z,65.04
2019-03-10T12:55:55.497Z,65.06
2019-03-10T12:58:24.887Z,64.97
2019-03-10T13:00:53.536Z,66.62
2019-03-10T13:03:22.381Z,65.42
2019-03-10T13:05:51.061Z,67.61
2019-03-10T13:08:20.110Z,66.64
2019-03-10T13:10:48.810Z,65.73
2019-03-10T13:13:17.902Z,65.84
2019-03-10T13:15:47.139Z,65.98
2019-03-10T13:18:15.846Z,65.78
2019-03-10T13:20:44.336Z,65.26
2019-03-10T13:23:13.858Z,65.52
2019-03-10T13:25:42.656Z,65.02
2019-03-10T13:28:11.740Z,65.84
2019-03-10T13:30:40.861Z,68.81
2019-03-10T13:33:12.678Z,65.88
2019-03-10T13:35:41.797Z,65.25
2019-03-10T13:38:11.305Z,65.21
2019-03-10T13:40:40.214Z,65.51
2019-03-10T13:43:09.157Z,66.98
2019-03-10T13:45:38.107Z,66.94
2019-03-10T13:48:06.671Z,66.72
2019-03-10T13:50:36.215Z,67.05
2019-03-10T13:53:05.427Z,71.12
2019-03-10T13:55:34.507Z,73.81
2019-03-10T13:58:03.663Z,71.89
2019-03-10T14:00:33.701Z,68.21
2019-03-10T14:03:05.291Z,66.98
2019-03-10T14:05:34.614Z,66.60
2019-03-10T14:08:04.550Z,66.29
2019-03-10T14:10:33.887Z,74.37
2019-03-10T14:13:02.229Z,78.99
2019-03-10T14:15:31.033Z,71.01
2019-03-10T14:17:59.752Z,67.64
2019-03-10T14:20:28.502Z,66.48
2019-03-10T14:22:57.645Z,65.79
2019-03-10T14:25:26.716Z,65.41
2019-03-10T14:27:55.550Z,67.12
2019-03-10T14:30:23.981Z,65.74
2019-03-10T14:32:52.993Z,65.87
2019-03-10T14:35:21.612Z,73.27
2019-03-10T14:37:50.598Z,66.61
2019-03-10T14:40:19.700Z,75.72
2019-03-10T14:42:48.733Z,70.20
2019-03-10T14:45:17.523Z,74.27
2019-03-10T14:47:48.848Z,77.51
2019-03-10T14:50:18.755Z,77.63
2019-03-10T14:52:48.283Z,77.62
2019-03-10T14:55:17.541Z,75.84
2019-03-10T14:57:47.240Z,78.45
2019-03-10T15:00:19.391Z,78.01
2019-03-10T15:02:48.809Z,77.54
2019-03-10T15:05:17.530Z,76.23
2019-03-10T15:07:46.899Z,75.08
2019-03-10T15:10:16.889Z,72.94
2019-03-10T15:12:46.653Z,74.50
2019-03-10T15:15:22.289Z,74.17
2019-03-10T15:17:46.394Z,72.83
2019-03-10T15:20:15.642Z,71.10
2019-03-10T15:22:44.991Z,70.45
2019-03-10T15:25:14.035Z,70.66
2019-03-10T15:27:44.422Z,69.43
2019-03-10T15:30:34.315Z,68.35
2019-03-10T15:33:04.078Z,67.82
2019-03-10T15:35:33.240Z,67.66
2019-03-10T15:38:02.556Z,66.16
2019-03-10T15:40:34.441Z,65.51
2019-03-10T15:43:04.896Z,67.47
2019-03-10T15:45:33.702Z,68.40
2019-03-10T15:48:02.557Z,69.17
2019-03-10T15:50:31.888Z,69.16
2019-03-10T15:53:01.181Z,69.87
2019-03-10T15:55:30.707Z,68.89
2019-03-10T15:57:59.287Z,70.24
2019-03-10T16:00:28.200Z,71.86
2019-03-10T16:02:57.307Z,70.70
2019-03-10T16:05:26.000Z,71.19
2019-03-10T16:07:56.491Z,71.20
2019-03-10T16:10:25.707Z,72.24
2019-03-10T16:12:54.977Z,72.32
2019-03-10T16:15:23.556Z,71.56
2019-03-10T16:17:53.127Z,73.27
2019-03-10T16:20:22.328Z,73.13
2019-03-10T16:22:51.394Z,73.63
2019-03-10T16:25:20.629Z,73.42
2019-03-10T16:27:50.129Z,74.55
2019-03-10T16:30:19.485Z,73.12
2019-03-10T16:32:56.001Z,73.45
2019-03-10T16:35:25.032Z,74.30
2019-03-10T16:37:54.541Z,75.38
2019-03-10T16:40:27.516Z,75.14
2019-03-10T16:42:57.683Z,75.17
2019-03-10T16:45:26.941Z,74.58
2019-03-10T16:47:57.701Z,74.16
2019-03-10T16:50:28.206Z,73.22
2019-03-10T16:52:57.059Z,72.93
2019-03-10T16:55:25.925Z,73.21
2019-03-10T16:57:55.180Z,73.54
2019-03-10T17:00:43.064Z,73.78
2019-03-10T17:03:11.890Z,71.99
2019-03-10T17:05:40.565Z,73.90
2019-03-10T17:08:10.256Z,73.55
2019-03-10T17:10:39.263Z,74.22
2019-03-10T17:13:09.008Z,75.44
2019-03-10T17:15:38.587Z,73.73
2019-03-10T17:18:08.593Z,73.13
2019-03-10T17:20:38.271Z,80.68
2019-03-10T17:23:08.264Z,79.46
2019-03-10T17:25:37.872Z,80.69
2019-03-10T17:28:07.296Z,77.20
2019-03-10T17:30:36.511Z,77.78
2019-03-10T17:33:06.135Z,76.48
2019-03-10T17:35:35.221Z,75.72
2019-03-10T17:38:04.177Z,77.35
2019-03-10T17:40:33.293Z,78.15
2019-03-10T17:43:02.057Z,80.88
2019-03-10T17:45:31.051Z,80.33
2019-03-10T17:48:00.727Z,81.82
2019-03-10T17:50:29.194Z,79.75
2019-03-10T17:52:58.379Z,77.40
2019-03-10T17:55:27.503Z,77.59
2019-03-10T17:57:57.281Z,79.49
2019-03-10T18:00:27.562Z,75.30
2019-03-10T18:02:57.271Z,78.36
2019-03-10T18:05:26.063Z,79.86
2019-03-10T18:07:55.456Z,79.96
2019-03-10T18:10:25.724Z,79.96
2019-03-10T18:12:55.120Z,76.01
2019-03-10T18:15:25.371Z,79.85
2019-03-10T18:17:54.404Z,80.68
2019-03-10T18:20:23.658Z,80.18
2019-03-10T18:22:52.706Z,81.27
2019-03-10T18:25:21.791Z,79.46
2019-03-10T18:27:50.990Z,82.09
2019-03-10T18:30:21.832Z,80.40
2019-03-10T18:32:51.230Z,80.14
2019-03-10T18:35:21.009Z,79.78
2019-03-10T18:37:50.748Z,79.02
2019-03-10T18:40:28.785Z,77.84
2019-03-10T18:42:57.891Z,79.58
2019-03-10T18:45:28.970Z,80.29
2019-03-10T18:47:58.737Z,80.10
2019-03-10T18:50:29.258Z,78.70
2019-03-10T18:52:58.686Z,76.74
2019-03-10T18:55:27.785Z,80.49
2019-03-10T18:57:57.379Z,79.82
2019-03-10T19:00:26.786Z,78.55
2019-03-10T19:02:56.614Z,78.96
2019-03-10T19:05:26.747Z,80.87
2019-03-10T19:08:15.287Z,80.77
2019-03-10T19:10:45.560Z,79.06
2019-03-10T19:13:15.956Z,80.98
2019-03-10T19:15:45.560Z,79.73
2019-03-10T19:18:15.742Z,78.54
2019-03-10T19:20:45.441Z,81.23
2019-03-10T19:23:15.438Z,81.23
2019-03-10T19:25:46.662Z,82.09
2019-03-10T19:28:16.047Z,81.30
2019-03-10T19:30:47.162Z,79.04
2019-03-10T19:33:16.762Z,77.81
2019-03-10T19:35:47.329Z,76.97
2019-03-10T19:38:18.432Z,79.29
2019-03-10T19:40:48.465Z,79.27
2019-03-10T19:43:18.432Z,78.96
2019-03-10T19:45:48.537Z,76.21
2019-03-10T19:48:18.793Z,78.71
2019-03-10T19:50:49.264Z,77.77
2019-03-10T19:53:19.468Z,81.77
2019-03-10T19:55:49.501Z,79.78
2019-03-10T19:58:19.665Z,80.02
2019-03-10T20:00:49.797Z,79.99
2019-03-10T20:03:19.682Z,79.13
2019-03-10T20:05:52.846Z,81.25
2019-03-10T20:08:23.072Z,78.61
2019-03-10T20:10:52.998Z,77.09
2019-03-10T20:13:23.050Z,80.84
2019-03-10T20:15:53.269Z,81.10
2019-03-10T20:18:23.091Z,77.91
2019-03-10T20:20:57.831Z,78.87
2019-03-10T20:23:27.839Z,79.52
2019-03-10T20:25:59.645Z,77.53
2019-03-10T20:28:30.043Z,80.25
2019-03-10T20:30:59.307Z,76.57
2019-03-10T20:33:29.010Z,79.48
2019-03-10T20:35:58.390Z,79.41
2019-03-10T20:38:27.950Z,79.20
2019-03-10T20:40:56.722Z,80.63
2019-03-10T20:43:25.920Z,75.94
2019-03-10T20:45:55.986Z,77.99
2019-03-10T20:48:26.723Z,78.47
2019-03-10T20:50:56.384Z,80.12
2019-03-10T20:53:26.054Z,78.76
2019-03-10T20:55:55.163Z,78.33
2019-03-10T20:58:24.934Z,78.49
2019-03-10T21:00:54.308Z,81.25
2019-03-10T21:03:22.863Z,76.97
2019-03-10T21:05:52.413Z,78.57
2019-03-10T21:08:22.010Z,81.44
2019-03-10T21:10:51.636Z,77.98
2019-03-10T21:13:20.875Z,80.14
2019-03-10T21:15:49.879Z,80.52
2019-03-10T21:18:18.807Z,80.78
2019-03-10T21:20:47.603Z,80.79
2019-03-10T21:23:16.413Z,81.33
2019-03-10T21:25:45.338Z,80.83
2019-03-10T21:28:14.097Z,80.82
2019-03-10T21:30:42.803Z,81.86
2019-03-10T21:33:11.423Z,80.15
2019-03-10T21:35:40.089Z,79.71
2019-03-10T21:38:08.522Z,79.02
2019-03-10T21:40:37.142Z,77.68
2019-03-10T21:43:05.529Z,78.73
2019-03-10T21:45:34.897Z,77.65
2019-03-10T21:48:03.970Z,80.34
2019-03-10T21:50:32.597Z,74.54
2019-03-10T21:53:01.800Z,80.17
2019-03-10T21:55:30.187Z,79.29
2019-03-10T21:57:58.642Z,78.26
2019-03-10T22:00:27.018Z,78.69
2019-03-10T22:02:55.324Z,74.77
2019-03-10T22:05:23.731Z,78.17
2019-03-10T22:07:52.222Z,78.70
2019-03-10T22:10:27.472Z,76.95
2019-03-10T22:12:54.685Z,76.73
2019-03-10T22:15:23.141Z,76.56
2019-03-10T22:17:51.258Z,78.52
2019-03-10T22:20:19.536Z,74.39
2019-03-10T22:22:49.869Z,76.04
2019-03-10T22:25:18.546Z,78.02
2019-03-10T22:27:46.902Z,78.85
2019-03-10T22:30:16.566Z,79.17
2019-03-10T22:32:45.032Z,78.58
2019-03-10T22:35:13.597Z,77.69
2019-03-10T22:37:41.923Z,79.79
2019-03-10T22:40:11.313Z,77.65
2019-03-10T22:42:39.861Z,78.71
2019-03-10T22:45:09.408Z,78.77
2019-03-10T22:47:37.644Z,79.22
2019-03-10T22:50:06.295Z,78.81
2019-03-10T22:52:34.574Z,77.98
2019-03-10T22:55:02.770Z,79.05
2019-03-10T22:57:31.042Z,77.81
2019-03-10T22:59:59.511Z,79.06
2019-03-10T23:02:27.654Z,78.15
2019-03-10T23:04:55.868Z,77.30
2019-03-10T23:07:24.188Z,78.48
2019-03-10T23:09:52.414Z,77.37
2019-03-10T23:12:23.706Z,76.65
2019-03-10T23:14:52.038Z,75.79
2019-03-10T23:17:20.391Z,76.94
2019-03-10T23:19:48.617Z,77.27
2019-03-10T23:22:16.839Z,74.66
2019-03-10T23:24:45.132Z,77.08
2019-03-10T23:27:13.290Z,74.87
2019-03-10T23:29:41.461Z,76.31
2019-03-10T23:32:09.769Z,76.38
2019-03-10T23:34:38.019Z,75.10
2019-03-10T23:37:06.183Z,76.79
2019-03-10T23:39:34.385Z,76.04
2019-03-10T23:42:02.693Z,75.88
2019-03-10T23:44:31.011Z,77.14
2019-03-10T23:46:59.146Z,77.25
2019-03-10T23:49:27.301Z,75.55
2019-03-10T23:51:55.518Z,74.74
2019-03-10T23:54:23.839Z,74.82
2019-03-10T23:56:52.137Z,75.30
2019-03-10T23:59:20.221Z,77.35
